sensor_id;sensor_type;location;lat;lon;timestamp;temperature;humidity
36594;DHT22;22603;47.900;8.146;2023-05-28T00:01:08;9.00;99.90
36594;DHT22;22603;47.900;8.146;2023-05-28T00:03:55;8.90;99.90
36594;DHT22;22603;47.900;8.146;2023-05-28T00:06:44;8.90;99.90
36594;DHT22;22603;47.900;8.146;2023-05-28T00:09:34;8.80;99.90
36594;DHT22;22603;47.900;8.146;2023-05-28T00:12:21;8.80;99.90
36594;DHT22;22603;47.900;8.146;2023-05-28T00:15:09;8.70;99.90
36594;DHT22;22603;47.900;8.146;2023-05-28T00:17:56;8.70;99.90
36594;DHT22;22603;47.900;8.146;2023-05-28T00:20:43;8.60;99.90
36594;DHT22;22603;47.900;8.146;2023-05-28T00:23:32;8.60;99.90
36594;DHT22;22603;47.900;8.146;2023-05-28T00:26:19;8.50;99.90
36594;DHT22;22603;47.900;8.146;2023-05-28T00:29:06;8.50;99.90
36594;DHT22;22603;47.900;8.146;2023-05-28T00:31:53;8.40;99.90
36594;DHT22;22603;47.900;8.146;2023-05-28T00:34:41;8.40;99.90
36594;DHT22;22603;47.900;8.146;2023-05-28T00:37:28;8.40;99.90
36594;DHT22;22603;47.900;8.146;2023-05-28T00:40:18;8.30;99.90
36594;DHT22;22603;47.900;8.146;2023-05-28T00:43:05;8.30;99.90
36594;DHT22;22603;47.900;8.146;2023-05-28T00:45:53;8.20;99.90
36594;DHT22;22603;47.900;8.146;2023-05-28T00:48:44;8.20;99.90
36594;DHT22;22603;47.900;8.146;2023-05-28T00:51:33;8.20;99.90
36594;DHT22;22603;47.900;8.146;2023-05-28T00:54:21;8.20;99.90
36594;DHT22;22603;47.900;8.146;2023-05-28T00:57:11;8.10;99.90
36594;DHT22;22603;47.900;8.146;2023-05-28T00:59:58;8.00;99.90
36594;DHT22;22603;47.900;8.146;2023-05-28T01:02:51;8.00;99.90
36594;DHT22;22603;47.900;8.146;2023-05-28T01:05:38;7.90;99.90
36594;DHT22;22603;47.900;8.146;2023-05-28T01:08:25;7.90;99.90
36594;DHT22;22603;47.900;8.146;2023-05-28T01:11:16;7.90;99.90
36594;DHT22;22603;47.900;8.146;2023-05-28T01:14:04;7.70;99.90
36594;DHT22;22603;47.900;8.146;2023-05-28T01:16:53;7.80;99.90
36594;DHT22;22603;47.900;8.146;2023-05-28T01:19:40;7.70;99.90
36594;DHT22;22603;47.900;8.146;2023-05-28T01:22:28;7.70;99.90
36594;DHT22;22603;47.900;8.146;2023-05-28T01:25:19;7.70;99.90
36594;DHT22;22603;47.900;8.146;2023-05-28T01:28:11;7.70;99.90
36594;DHT22;22603;47.900;8.146;2023-05-28T01:30:59;7.60;99.90
36594;DHT22;22603;47.900;8.146;2023-05-28T01:33:49;7.60;99.90
36594;DHT22;22603;47.900;8.146;2023-05-28T01:36:42;7.60;99.90
36594;DHT22;22603;47.900;8.146;2023-05-28T01:39:33;7.60;99.90
36594;DHT22;22603;47.900;8.146;2023-05-28T01:42:24;7.50;99.90
36594;DHT22;22603;47.900;8.146;2023-05-28T01:45:12;7.50;99.90
36594;DHT22;22603;47.900;8.146;2023-05-28T01:47:59;7.40;99.90
36594;DHT22;22603;47.900;8.146;2023-05-28T01:50:46;7.40;99.90
36594;DHT22;22603;47.900;8.146;2023-05-28T01:53:33;7.30;99.90
36594;DHT22;22603;47.900;8.146;2023-05-28T01:56:20;7.30;99.90
36594;DHT22;22603;47.900;8.146;2023-05-28T01:59:08;7.20;99.90
36594;DHT22;22603;47.900;8.146;2023-05-28T02:01:56;7.20;99.90
36594;DHT22;22603;47.900;8.146;2023-05-28T02:04:43;7.10;99.90
36594;DHT22;22603;47.900;8.146;2023-05-28T02:07:30;7.10;99.90
36594;DHT22;22603;47.900;8.146;2023-05-28T02:10:17;7.00;99.90
36594;DHT22;22603;47.900;8.146;2023-05-28T02:13:04;7.00;99.90
36594;DHT22;22603;47.900;8.146;2023-05-28T02:15:52;7.00;99.90
36594;DHT22;22603;47.900;8.146;2023-05-28T02:18:40;6.90;99.90
36594;DHT22;22603;47.900;8.146;2023-05-28T02:21:27;6.90;99.90
36594;DHT22;22603;47.900;8.146;2023-05-28T02:24:15;6.90;99.90
36594;DHT22;22603;47.900;8.146;2023-05-28T02:27:02;6.90;99.90
36594;DHT22;22603;47.900;8.146;2023-05-28T02:29:50;6.80;99.90
36594;DHT22;22603;47.900;8.146;2023-05-28T02:32:38;6.80;99.90
36594;DHT22;22603;47.900;8.146;2023-05-28T02:35:26;6.80;99.90
36594;DHT22;22603;47.900;8.146;2023-05-28T02:38:12;6.70;99.90
36594;DHT22;22603;47.900;8.146;2023-05-28T02:40:59;6.70;99.90
36594;DHT22;22603;47.900;8.146;2023-05-28T02:43:47;6.70;99.90
36594;DHT22;22603;47.900;8.146;2023-05-28T02:47:50;6.60;99.90
36594;DHT22;22603;47.900;8.146;2023-05-28T02:51:01;6.60;99.90
36594;DHT22;22603;47.900;8.146;2023-05-28T02:54:05;6.50;99.90
36594;DHT22;22603;47.900;8.146;2023-05-28T02:57:30;6.40;99.90
36594;DHT22;22603;47.900;8.146;2023-05-28T03:00:54;6.50;99.90
36594;DHT22;22603;47.900;8.146;2023-05-28T03:04:19;6.50;99.90
36594;DHT22;22603;47.900;8.146;2023-05-28T03:07:19;6.40;99.90
36594;DHT22;22603;47.900;8.146;2023-05-28T03:10:23;6.40;99.90
36594;DHT22;22603;47.900;8.146;2023-05-28T03:13:27;6.40;99.90
36594;DHT22;22603;47.900;8.146;2023-05-28T03:16:23;6.30;99.90
36594;DHT22;22603;47.900;8.146;2023-05-28T03:19:37;6.30;99.90
36594;DHT22;22603;47.900;8.146;2023-05-28T03:22:39;6.20;99.90
36594;DHT22;22603;47.900;8.146;2023-05-28T03:25:36;6.20;99.90
36594;DHT22;22603;47.900;8.146;2023-05-28T03:28:43;6.10;99.90
36594;DHT22;22603;47.900;8.146;2023-05-28T03:31:43;6.10;99.90
36594;DHT22;22603;47.900;8.146;2023-05-28T03:34:38;6.10;99.90
36594;DHT22;22603;47.900;8.146;2023-05-28T03:37:55;6.10;99.90
36594;DHT22;22603;47.900;8.146;2023-05-28T03:41:03;6.10;99.90
36594;DHT22;22603;47.900;8.146;2023-05-28T03:44:03;6.10;99.90
36594;DHT22;22603;47.900;8.146;2023-05-28T03:47:06;6.10;99.90
36594;DHT22;22603;47.900;8.146;2023-05-28T03:50:07;6.10;99.90
36594;DHT22;22603;47.900;8.146;2023-05-28T03:53:21;6.00;99.90
36594;DHT22;22603;47.900;8.146;2023-05-28T03:56:26;6.10;99.90
36594;DHT22;22603;47.900;8.146;2023-05-28T03:59:25;6.10;99.90
36594;DHT22;22603;47.900;8.146;2023-05-28T04:02:31;6.10;99.90
36594;DHT22;22603;47.900;8.146;2023-05-28T04:05:25;6.10;99.90
36594;DHT22;22603;47.900;8.146;2023-05-28T04:08:50;6.10;99.90
36594;DHT22;22603;47.900;8.146;2023-05-28T04:11:58;6.10;99.90
36594;DHT22;22603;47.900;8.146;2023-05-28T04:15:17;6.20;99.90
36594;DHT22;22603;47.900;8.146;2023-05-28T04:18:30;6.20;99.90
36594;DHT22;22603;47.900;8.146;2023-05-28T04:21:51;6.20;99.90
36594;DHT22;22603;47.900;8.146;2023-05-28T04:25:16;6.20;99.90
36594;DHT22;22603;47.900;8.146;2023-05-28T04:28:25;6.30;99.90
36594;DHT22;22603;47.900;8.146;2023-05-28T04:31:25;6.30;99.90
36594;DHT22;22603;47.900;8.146;2023-05-28T04:34:44;6.40;99.90
36594;DHT22;22603;47.900;8.146;2023-05-28T04:37:57;6.40;99.90
36594;DHT22;22603;47.900;8.146;2023-05-28T04:41:04;6.40;99.90
36594;DHT22;22603;47.900;8.146;2023-05-28T04:44:04;6.50;99.90
36594;DHT22;22603;47.900;8.146;2023-05-28T04:47:29;6.70;99.90
36594;DHT22;22603;47.900;8.146;2023-05-28T04:50:25;6.70;99.90
36594;DHT22;22603;47.900;8.146;2023-05-28T04:53:27;6.80;99.90
36594;DHT22;22603;47.900;8.146;2023-05-28T04:56:28;6.90;99.90
36594;DHT22;22603;47.900;8.146;2023-05-28T04:59:27;7.00;99.90
36594;DHT22;22603;47.900;8.146;2023-05-28T05:02:28;7.10;99.90
36594;DHT22;22603;47.900;8.146;2023-05-28T05:05:27;7.20;99.90
36594;DHT22;22603;47.900;8.146;2023-05-28T05:08:22;7.40;99.90
36594;DHT22;22603;47.900;8.146;2023-05-28T05:11:21;7.50;99.90
36594;DHT22;22603;47.900;8.146;2023-05-28T05:14:26;7.70;99.90
36594;DHT22;22603;47.900;8.146;2023-05-28T05:17:33;7.80;99.90
36594;DHT22;22603;47.900;8.146;2023-05-28T05:20:44;8.00;99.90
36594;DHT22;22603;47.900;8.146;2023-05-28T05:23:43;8.10;99.90
36594;DHT22;22603;47.900;8.146;2023-05-28T05:26:41;8.30;99.90
36594;DHT22;22603;47.900;8.146;2023-05-28T05:29:46;8.40;99.90
36594;DHT22;22603;47.900;8.146;2023-05-28T05:32:42;8.60;99.90
36594;DHT22;22603;47.900;8.146;2023-05-28T05:35:40;8.70;99.90
36594;DHT22;22603;47.900;8.146;2023-05-28T05:38:37;8.90;99.90
36594;DHT22;22603;47.900;8.146;2023-05-28T05:41:35;9.00;99.90
36594;DHT22;22603;47.900;8.146;2023-05-28T05:44:34;9.20;99.90
36594;DHT22;22603;47.900;8.146;2023-05-28T05:47:35;9.40;99.90
36594;DHT22;22603;47.900;8.146;2023-05-28T05:50:48;9.50;99.90
36594;DHT22;22603;47.900;8.146;2023-05-28T05:53:43;9.50;99.90
36594;DHT22;22603;47.900;8.146;2023-05-28T05:56:57;9.60;99.90
36594;DHT22;22603;47.900;8.146;2023-05-28T05:59:58;9.70;99.90
36594;DHT22;22603;47.900;8.146;2023-05-28T06:03:12;10.00;99.90
36594;DHT22;22603;47.900;8.146;2023-05-28T06:06:14;10.30;99.90
36594;DHT22;22603;47.900;8.146;2023-05-28T06:09:21;10.30;99.90
36594;DHT22;22603;47.900;8.146;2023-05-28T06:12:43;10.30;99.90
36594;DHT22;22603;47.900;8.146;2023-05-28T06:15:55;10.50;99.90
36594;DHT22;22603;47.900;8.146;2023-05-28T06:19:21;10.70;99.90
36594;DHT22;22603;47.900;8.146;2023-05-28T06:22:41;10.90;99.90
36594;DHT22;22603;47.900;8.146;2023-05-28T06:25:53;11.60;99.90
36594;DHT22;22603;47.900;8.146;2023-05-28T06:28:59;12.40;99.90
36594;DHT22;22603;47.900;8.146;2023-05-28T06:32:03;13.00;99.90
36594;DHT22;22603;47.900;8.146;2023-05-28T06:35:19;13.60;99.90
36594;DHT22;22603;47.900;8.146;2023-05-28T06:38:36;14.50;99.90
36594;DHT22;22603;47.900;8.146;2023-05-28T06:41:55;15.00;99.90
36594;DHT22;22603;47.900;8.146;2023-05-28T06:45:06;16.30;99.90
36594;DHT22;22603;47.900;8.146;2023-05-28T06:48:15;17.20;99.90
36594;DHT22;22603;47.900;8.146;2023-05-28T06:51:46;17.40;99.90
36594;DHT22;22603;47.900;8.146;2023-05-28T06:55:09;16.90;99.90
36594;DHT22;22603;47.900;8.146;2023-05-28T06:58:34;17.90;99.90
36594;DHT22;22603;47.900;8.146;2023-05-28T07:01:31;18.20;99.90
36594;DHT22;22603;47.900;8.146;2023-05-28T07:04:27;19.10;99.90
36594;DHT22;22603;47.900;8.146;2023-05-28T07:07:50;18.40;99.90
36594;DHT22;22603;47.900;8.146;2023-05-28T07:10:55;19.40;99.90
36594;DHT22;22603;47.900;8.146;2023-05-28T07:14:06;19.50;99.90
36594;DHT22;22603;47.900;8.146;2023-05-28T07:17:31;19.50;99.90
36594;DHT22;22603;47.900;8.146;2023-05-28T07:20:49;20.30;99.90
36594;DHT22;22603;47.900;8.146;2023-05-28T07:23:59;20.70;99.90
36594;DHT22;22603;47.900;8.146;2023-05-28T07:26:58;20.70;99.90
36594;DHT22;22603;47.900;8.146;2023-05-28T07:30:16;20.70;99.90
36594;DHT22;22603;47.900;8.146;2023-05-28T07:33:20;21.20;99.90
36594;DHT22;22603;47.900;8.146;2023-05-28T07:36:28;21.40;99.90
36594;DHT22;22603;47.900;8.146;2023-05-28T07:39:35;21.90;99.90
36594;DHT22;22603;47.900;8.146;2023-05-28T07:42:33;21.90;99.90
36594;DHT22;22603;47.900;8.146;2023-05-28T07:45:37;22.70;99.90
36594;DHT22;22603;47.900;8.146;2023-05-28T07:48:39;23.20;99.90
36594;DHT22;22603;47.900;8.146;2023-05-28T07:51:51;23.40;99.90
36594;DHT22;22603;47.900;8.146;2023-05-28T07:55:01;23.60;99.90
36594;DHT22;22603;47.900;8.146;2023-05-28T07:58:04;23.50;99.90
36594;DHT22;22603;47.900;8.146;2023-05-28T08:01:12;23.80;99.90
36594;DHT22;22603;47.900;8.146;2023-05-28T08:04:23;24.10;99.90
36594;DHT22;22603;47.900;8.146;2023-05-28T08:08:06;22.60;99.90
36594;DHT22;22603;47.900;8.146;2023-05-28T08:11:51;22.90;99.90
36594;DHT22;22603;47.900;8.146;2023-05-28T08:15:51;22.90;99.90
36594;DHT22;22603;47.900;8.146;2023-05-28T08:20:23;22.50;99.90
36594;DHT22;22603;47.900;8.146;2023-05-28T08:24:45;21.60;99.90
36594;DHT22;22603;47.900;8.146;2023-05-28T09:12:12;25.60;99.90
36594;DHT22;22603;47.900;8.146;2023-05-28T09:14:59;25.30;99.90
36594;DHT22;22603;47.900;8.146;2023-05-28T09:17:46;25.60;99.90
36594;DHT22;22603;47.900;8.146;2023-05-28T09:20:33;26.10;99.90
36594;DHT22;22603;47.900;8.146;2023-05-28T09:23:20;26.00;99.90
36594;DHT22;22603;47.900;8.146;2023-05-28T09:26:08;25.70;99.90
36594;DHT22;22603;47.900;8.146;2023-05-28T09:28:57;26.00;99.90
36594;DHT22;22603;47.900;8.146;2023-05-28T09:31:54;24.60;99.90
36594;DHT22;22603;47.900;8.146;2023-05-28T09:34:42;23.80;99.90
36594;DHT22;22603;47.900;8.146;2023-05-28T09:37:29;23.50;99.90
36594;DHT22;22603;47.900;8.146;2023-05-28T09:40:17;23.10;99.90
36594;DHT22;22603;47.900;8.146;2023-05-28T09:43:04;23.50;99.90
36594;DHT22;22603;47.900;8.146;2023-05-28T09:46:06;24.10;99.90
36594;DHT22;22603;47.900;8.146;2023-05-28T09:48:54;25.30;99.90
36594;DHT22;22603;47.900;8.146;2023-05-28T09:51:43;26.40;99.90
36594;DHT22;22603;47.900;8.146;2023-05-28T09:54:34;26.50;99.90
36594;DHT22;22603;47.900;8.146;2023-05-28T09:57:24;25.90;99.90
36594;DHT22;22603;47.900;8.146;2023-05-28T10:00:14;26.70;99.90
36594;DHT22;22603;47.900;8.146;2023-05-28T10:03:19;27.60;99.90
36594;DHT22;22603;47.900;8.146;2023-05-28T10:06:10;27.90;99.90
36594;DHT22;22603;47.900;8.146;2023-05-28T10:08:59;27.10;99.90
36594;DHT22;22603;47.900;8.146;2023-05-28T10:11:52;27.40;99.90
36594;DHT22;22603;47.900;8.146;2023-05-28T10:14:41;27.20;99.90
36594;DHT22;22603;47.900;8.146;2023-05-28T10:17:30;27.90;99.90
36594;DHT22;22603;47.900;8.146;2023-05-28T10:20:19;27.80;99.90
36594;DHT22;22603;47.900;8.146;2023-05-28T10:23:06;27.20;99.90
36594;DHT22;22603;47.900;8.146;2023-05-28T10:25:54;26.60;99.90
36594;DHT22;22603;47.900;8.146;2023-05-28T10:28:42;27.70;99.90
36594;DHT22;22603;47.900;8.146;2023-05-28T10:31:29;27.30;99.90
36594;DHT22;22603;47.900;8.146;2023-05-28T10:34:17;28.40;99.90
36594;DHT22;22603;47.900;8.146;2023-05-28T10:37:09;28.80;99.90
36594;DHT22;22603;47.900;8.146;2023-05-28T10:39:57;28.70;99.90
36594;DHT22;22603;47.900;8.146;2023-05-28T10:42:46;29.00;99.90
36594;DHT22;22603;47.900;8.146;2023-05-28T10:45:37;29.00;99.90
36594;DHT22;22603;47.900;8.146;2023-05-28T10:48:30;29.00;99.90
36594;DHT22;22603;47.900;8.146;2023-05-28T10:51:19;28.50;99.90
36594;DHT22;22603;47.900;8.146;2023-05-28T10:54:15;27.60;99.90
36594;DHT22;22603;47.900;8.146;2023-05-28T10:57:12;28.50;99.90
36594;DHT22;22603;47.900;8.146;2023-05-28T11:00:00;28.90;99.90
36594;DHT22;22603;47.900;8.146;2023-05-28T11:02:55;29.00;99.90
36594;DHT22;22603;47.900;8.146;2023-05-28T11:05:43;29.20;99.90
36594;DHT22;22603;47.900;8.146;2023-05-28T11:08:30;28.90;99.90
36594;DHT22;22603;47.900;8.146;2023-05-28T11:11:19;29.00;99.90
36594;DHT22;22603;47.900;8.146;2023-05-28T11:14:06;29.00;99.90
36594;DHT22;22603;47.900;8.146;2023-05-28T11:16:53;28.40;99.90
36594;DHT22;22603;47.900;8.146;2023-05-28T11:19:42;28.10;99.90
36594;DHT22;22603;47.900;8.146;2023-05-28T11:22:33;28.20;99.90
36594;DHT22;22603;47.900;8.146;2023-05-28T11:25:21;29.00;99.90
36594;DHT22;22603;47.900;8.146;2023-05-28T11:28:12;28.10;99.90
36594;DHT22;22603;47.900;8.146;2023-05-28T11:30:59;28.60;99.90
36594;DHT22;22603;47.900;8.146;2023-05-28T11:33:48;27.60;99.90
36594;DHT22;22603;47.900;8.146;2023-05-28T11:36:40;25.80;99.90
36594;DHT22;22603;47.900;8.146;2023-05-28T11:39:27;26.10;99.90
36594;DHT22;22603;47.900;8.146;2023-05-28T11:42:14;25.10;99.90
36594;DHT22;22603;47.900;8.146;2023-05-28T11:45:03;26.00;99.90
36594;DHT22;22603;47.900;8.146;2023-05-28T11:47:50;27.30;99.90
36594;DHT22;22603;47.900;8.146;2023-05-28T11:50:37;27.80;99.90
36594;DHT22;22603;47.900;8.146;2023-05-28T11:53:25;28.20;99.90
36594;DHT22;22603;47.900;8.146;2023-05-28T11:56:50;28.10;99.90
36594;DHT22;22603;47.900;8.146;2023-05-28T11:59:37;27.20;99.90
36594;DHT22;22603;47.900;8.146;2023-05-28T12:02:25;27.80;99.90
36594;DHT22;22603;47.900;8.146;2023-05-28T12:05:13;27.90;99.90
36594;DHT22;22603;47.900;8.146;2023-05-28T12:08:01;27.10;99.90
36594;DHT22;22603;47.900;8.146;2023-05-28T12:10:48;26.90;99.90
36594;DHT22;22603;47.900;8.146;2023-05-28T12:13:35;27.00;99.90
36594;DHT22;22603;47.900;8.146;2023-05-28T12:16:23;27.30;99.90
36594;DHT22;22603;47.900;8.146;2023-05-28T12:19:13;27.20;99.90
36594;DHT22;22603;47.900;8.146;2023-05-28T12:22:01;27.00;99.90
36594;DHT22;22603;47.900;8.146;2023-05-28T12:24:49;27.30;99.90
36594;DHT22;22603;47.900;8.146;2023-05-28T12:27:39;27.70;99.90
36594;DHT22;22603;47.900;8.146;2023-05-28T12:30:26;27.30;99.90
36594;DHT22;22603;47.900;8.146;2023-05-28T12:33:13;26.40;99.90
36594;DHT22;22603;47.900;8.146;2023-05-28T12:36:02;26.10;99.90
36594;DHT22;22603;47.900;8.146;2023-05-28T12:38:49;26.10;99.90
36594;DHT22;22603;47.900;8.146;2023-05-28T12:41:37;25.90;99.90
36594;DHT22;22603;47.900;8.146;2023-05-28T12:44:24;26.30;99.90
36594;DHT22;22603;47.900;8.146;2023-05-28T12:47:13;26.60;99.90
36594;DHT22;22603;47.900;8.146;2023-05-28T12:50:01;26.70;99.90
36594;DHT22;22603;47.900;8.146;2023-05-28T12:52:49;26.40;99.90
36594;DHT22;22603;47.900;8.146;2023-05-28T12:55:38;26.60;99.90
36594;DHT22;22603;47.900;8.146;2023-05-28T12:58:25;26.90;99.90
36594;DHT22;22603;47.900;8.146;2023-05-28T13:01:13;26.40;99.90
36594;DHT22;22603;47.900;8.146;2023-05-28T13:04:00;26.60;99.90
36594;DHT22;22603;47.900;8.146;2023-05-28T13:06:47;26.90;99.90
36594;DHT22;22603;47.900;8.146;2023-05-28T13:09:37;26.80;99.90
36594;DHT22;22603;47.900;8.146;2023-05-28T13:12:25;26.70;99.90
36594;DHT22;22603;47.900;8.146;2023-05-28T13:15:11;26.40;99.90
36594;DHT22;22603;47.900;8.146;2023-05-28T13:17:59;25.80;99.90
36594;DHT22;22603;47.900;8.146;2023-05-28T13:20:46;26.40;99.90
36594;DHT22;22603;47.900;8.146;2023-05-28T13:23:34;26.10;99.90
36594;DHT22;22603;47.900;8.146;2023-05-28T13:26:22;26.30;99.90
36594;DHT22;22603;47.900;8.146;2023-05-28T13:29:09;26.20;99.90
36594;DHT22;22603;47.900;8.146;2023-05-28T13:31:57;26.20;99.90
36594;DHT22;22603;47.900;8.146;2023-05-28T13:34:44;26.00;99.90
36594;DHT22;22603;47.900;8.146;2023-05-28T13:37:30;25.70;99.90
36594;DHT22;22603;47.900;8.146;2023-05-28T13:40:19;25.70;99.90
36594;DHT22;22603;47.900;8.146;2023-05-28T13:43:09;25.80;99.90
36594;DHT22;22603;47.900;8.146;2023-05-28T13:45:57;25.90;99.90
36594;DHT22;22603;47.900;8.146;2023-05-28T13:48:45;26.50;99.90
36594;DHT22;22603;47.900;8.146;2023-05-28T13:51:32;26.60;99.90
36594;DHT22;22603;47.900;8.146;2023-05-28T13:54:19;26.40;99.90
36594;DHT22;22603;47.900;8.146;2023-05-28T13:57:06;26.30;99.90
36594;DHT22;22603;47.900;8.146;2023-05-28T13:59:54;26.20;99.90
36594;DHT22;22603;47.900;8.146;2023-05-28T14:02:41;25.80;99.90
36594;DHT22;22603;47.900;8.146;2023-05-28T14:05:29;26.00;99.90
36594;DHT22;22603;47.900;8.146;2023-05-28T14:08:16;25.60;99.90
36594;DHT22;22603;47.900;8.146;2023-05-28T14:11:03;25.50;99.90
36594;DHT22;22603;47.900;8.146;2023-05-28T14:13:50;25.40;99.90
36594;DHT22;22603;47.900;8.146;2023-05-28T14:16:39;25.30;99.90
36594;DHT22;22603;47.900;8.146;2023-05-28T14:19:26;25.60;99.90
36594;DHT22;22603;47.900;8.146;2023-05-28T14:22:12;25.50;99.90
36594;DHT22;22603;47.900;8.146;2023-05-28T14:24:59;25.00;99.90
36594;DHT22;22603;47.900;8.146;2023-05-28T14:27:46;25.10;99.90
36594;DHT22;22603;47.900;8.146;2023-05-28T14:30:48;24.90;99.90
36594;DHT22;22603;47.900;8.146;2023-05-28T14:33:37;24.90;99.90
36594;DHT22;22603;47.900;8.146;2023-05-28T14:36:24;25.40;99.90
36594;DHT22;22603;47.900;8.146;2023-05-28T14:39:11;25.60;99.90
36594;DHT22;22603;47.900;8.146;2023-05-28T14:41:59;25.70;99.90
36594;DHT22;22603;47.900;8.146;2023-05-28T14:44:46;25.90;99.90
36594;DHT22;22603;47.900;8.146;2023-05-28T14:47:33;25.60;99.90
36594;DHT22;22603;47.900;8.146;2023-05-28T14:50:22;25.70;99.90
36594;DHT22;22603;47.900;8.146;2023-05-28T14:53:09;25.40;99.90
36594;DHT22;22603;47.900;8.146;2023-05-28T14:55:56;25.30;99.90
36594;DHT22;22603;47.900;8.146;2023-05-28T14:58:44;25.20;99.90
36594;DHT22;22603;47.900;8.146;2023-05-28T15:01:31;24.80;99.90
36594;DHT22;22603;47.900;8.146;2023-05-28T15:04:18;25.20;99.90
36594;DHT22;22603;47.900;8.146;2023-05-28T15:07:07;24.90;99.90
36594;DHT22;22603;47.900;8.146;2023-05-28T15:09:54;25.10;99.90
36594;DHT22;22603;47.900;8.146;2023-05-28T15:12:42;24.60;99.90
36594;DHT22;22603;47.900;8.146;2023-05-28T15:15:29;24.30;99.90
36594;DHT22;22603;47.900;8.146;2023-05-28T15:18:16;24.40;99.90
36594;DHT22;22603;47.900;8.146;2023-05-28T15:21:03;24.60;99.90
36594;DHT22;22603;47.900;8.146;2023-05-28T15:24:13;24.60;99.90
36594;DHT22;22603;47.900;8.146;2023-05-28T15:28:06;24.30;99.90
36594;DHT22;22603;47.900;8.146;2023-05-28T15:31:35;24.50;99.90
36594;DHT22;22603;47.900;8.146;2023-05-28T15:35:22;24.10;99.90
36594;DHT22;22603;47.900;8.146;2023-05-28T15:39:13;23.90;99.90
36594;DHT22;22603;47.900;8.146;2023-05-28T15:42:56;23.70;99.90
36594;DHT22;22603;47.900;8.146;2023-05-28T15:46:45;23.90;99.90
36594;DHT22;22603;47.900;8.146;2023-05-28T15:50:34;23.60;99.90
36594;DHT22;22603;47.900;8.146;2023-05-28T15:54:20;23.40;99.90
36594;DHT22;22603;47.900;8.146;2023-05-28T15:58:03;23.50;99.90
36594;DHT22;22603;47.900;8.146;2023-05-28T16:01:30;23.80;99.90
36594;DHT22;22603;47.900;8.146;2023-05-28T16:05:22;23.60;99.90
36594;DHT22;22603;47.900;8.146;2023-05-28T16:08:35;23.50;99.90
36594;DHT22;22603;47.900;8.146;2023-05-28T16:11:51;23.90;99.90
36594;DHT22;22603;47.900;8.146;2023-05-28T16:15:13;24.10;99.90
36594;DHT22;22603;47.900;8.146;2023-05-28T16:18:25;23.90;99.90
36594;DHT22;22603;47.900;8.146;2023-05-28T16:21:51;23.60;99.90
36594;DHT22;22603;47.900;8.146;2023-05-28T16:25:00;23.60;99.90
36594;DHT22;22603;47.900;8.146;2023-05-28T16:28:28;23.40;99.90
36594;DHT22;22603;47.900;8.146;2023-05-28T16:31:52;23.40;99.90
36594;DHT22;22603;47.900;8.146;2023-05-28T16:35:06;23.50;99.90
36594;DHT22;22603;47.900;8.146;2023-05-28T16:38:26;23.20;99.90
36594;DHT22;22603;47.900;8.146;2023-05-28T16:41:48;23.10;99.90
36594;DHT22;22603;47.900;8.146;2023-05-28T16:45:07;23.00;99.90
36594;DHT22;22603;47.900;8.146;2023-05-28T16:48:27;22.90;99.90
36594;DHT22;22603;47.900;8.146;2023-05-28T16:51:49;22.80;99.90
36594;DHT22;22603;47.900;8.146;2023-05-28T16:55:04;22.70;99.90
36594;DHT22;22603;47.900;8.146;2023-05-28T16:58:16;22.60;99.90
36594;DHT22;22603;47.900;8.146;2023-05-28T17:01:52;22.30;99.90
36594;DHT22;22603;47.900;8.146;2023-05-28T17:05:16;22.30;99.90
36594;DHT22;22603;47.900;8.146;2023-05-28T17:08:43;22.30;99.90
36594;DHT22;22603;47.900;8.146;2023-05-28T17:12:04;22.20;99.90
36594;DHT22;22603;47.900;8.146;2023-05-28T17:15:32;22.10;99.90
36594;DHT22;22603;47.900;8.146;2023-05-28T17:18:58;22.10;99.90
36594;DHT22;22603;47.900;8.146;2023-05-28T17:22:25;22.00;99.90
36594;DHT22;22603;47.900;8.146;2023-05-28T17:25:37;21.70;99.90
36594;DHT22;22603;47.900;8.146;2023-05-28T17:28:54;21.40;99.90
36594;DHT22;22603;47.900;8.146;2023-05-28T17:32:10;21.40;99.90
36594;DHT22;22603;47.900;8.146;2023-05-28T17:35:40;21.40;99.90
36594;DHT22;22603;47.900;8.146;2023-05-28T17:38:53;21.20;99.90
36594;DHT22;22603;47.900;8.146;2023-05-28T17:42:07;21.10;99.90
36594;DHT22;22603;47.900;8.146;2023-05-28T17:45:32;21.10;99.90
36594;DHT22;22603;47.900;8.146;2023-05-28T17:49:14;20.80;99.90
36594;DHT22;22603;47.900;8.146;2023-05-28T17:53:02;20.80;99.90
36594;DHT22;22603;47.900;8.146;2023-05-28T17:56:44;20.70;99.90
36594;DHT22;22603;47.900;8.146;2023-05-28T17:59:59;20.60;99.90
36594;DHT22;22603;47.900;8.146;2023-05-28T18:03:24;20.40;99.90
36594;DHT22;22603;47.900;8.146;2023-05-28T18:06:50;20.30;99.90
36594;DHT22;22603;47.900;8.146;2023-05-28T18:10:09;20.10;99.90
36594;DHT22;22603;47.900;8.146;2023-05-28T18:13:16;20.00;99.90
36594;DHT22;22603;47.900;8.146;2023-05-28T18:16:59;19.90;99.90
36594;DHT22;22603;47.900;8.146;2023-05-28T18:20:26;19.70;99.90
36594;DHT22;22603;47.900;8.146;2023-05-28T18:23:41;19.50;99.90
36594;DHT22;22603;47.900;8.146;2023-05-28T18:27:19;19.40;99.90
36594;DHT22;22603;47.900;8.146;2023-05-28T18:30:33;19.20;99.90
36594;DHT22;22603;47.900;8.146;2023-05-28T18:33:47;19.10;99.90
36594;DHT22;22603;47.900;8.146;2023-05-28T18:36:57;19.10;99.90
36594;DHT22;22603;47.900;8.146;2023-05-28T18:40:12;19.00;99.90
36594;DHT22;22603;47.900;8.146;2023-05-28T18:44:14;18.80;99.90
36594;DHT22;22603;47.900;8.146;2023-05-28T18:47:31;18.70;99.90
36594;DHT22;22603;47.900;8.146;2023-05-28T18:50:52;18.60;99.90
36594;DHT22;22603;47.900;8.146;2023-05-28T18:54:13;18.50;99.90
36594;DHT22;22603;47.900;8.146;2023-05-28T18:57:25;18.40;99.90
36594;DHT22;22603;47.900;8.146;2023-05-28T19:00:42;18.30;99.90
36594;DHT22;22603;47.900;8.146;2023-05-28T19:04:01;18.20;99.90
36594;DHT22;22603;47.900;8.146;2023-05-28T19:07:19;18.00;99.90
36594;DHT22;22603;47.900;8.146;2023-05-28T19:10:37;17.90;99.90
36594;DHT22;22603;47.900;8.146;2023-05-28T19:13:50;17.80;99.90
36594;DHT22;22603;47.900;8.146;2023-05-28T19:17:02;17.80;99.90
36594;DHT22;22603;47.900;8.146;2023-05-28T19:20:17;17.70;99.90
36594;DHT22;22603;47.900;8.146;2023-05-28T19:23:48;17.50;99.90
36594;DHT22;22603;47.900;8.146;2023-05-28T19:26:57;17.40;99.90
36594;DHT22;22603;47.900;8.146;2023-05-28T19:30:23;17.20;99.90
36594;DHT22;22603;47.900;8.146;2023-05-28T19:33:50;17.00;99.90
36594;DHT22;22603;47.900;8.146;2023-05-28T19:37:07;16.90;99.90
36594;DHT22;22603;47.900;8.146;2023-05-28T19:40:23;16.70;99.90
36594;DHT22;22603;47.900;8.146;2023-05-28T19:44:04;16.60;99.90
36594;DHT22;22603;47.900;8.146;2023-05-28T19:47:20;16.50;99.90
36594;DHT22;22603;47.900;8.146;2023-05-28T19:51:05;16.20;99.90
36594;DHT22;22603;47.900;8.146;2023-05-28T19:54:20;16.00;99.90
36594;DHT22;22603;47.900;8.146;2023-05-28T19:57:39;15.80;99.90
36594;DHT22;22603;47.900;8.146;2023-05-28T20:01:23;15.70;99.90
36594;DHT22;22603;47.900;8.146;2023-05-28T20:04:39;15.50;99.90